sensor_id;sensor_type;location;lat;lon;timestamp;temperature;humidity
9837;DHT22;4957;51.412;6.724;2023-07-13T00:01:48;22.30;52.10
9837;DHT22;4957;51.412;6.724;2023-07-13T00:04:16;22.20;52.00
9837;DHT22;4957;51.412;6.724;2023-07-13T00:06:43;22.20;52.20
9837;DHT22;4957;51.412;6.724;2023-07-13T00:09:11;22.10;52.30
9837;DHT22;4957;51.412;6.724;2023-07-13T00:11:38;22.10;52.30
9837;DHT22;4957;51.412;6.724;2023-07-13T00:14:04;22.00;52.40
9837;DHT22;4957;51.412;6.724;2023-07-13T00:16:30;22.00;52.70
9837;DHT22;4957;51.412;6.724;2023-07-13T00:18:55;21.90;52.70
9837;DHT22;4957;51.412;6.724;2023-07-13T00:21:21;21.90;53.00
9837;DHT22;4957;51.412;6.724;2023-07-13T00:23:46;21.80;53.00
9837;DHT22;4957;51.412;6.724;2023-07-13T00:26:13;21.80;53.10
9837;DHT22;4957;51.412;6.724;2023-07-13T00:28:39;21.70;53.30
9837;DHT22;4957;51.412;6.724;2023-07-13T00:31:05;21.70;53.30
9837;DHT22;4957;51.412;6.724;2023-07-13T00:33:31;21.70;53.50
9837;DHT22;4957;51.412;6.724;2023-07-13T00:35:57;21.60;53.40
9837;DHT22;4957;51.412;6.724;2023-07-13T00:38:23;21.60;53.60
9837;DHT22;4957;51.412;6.724;2023-07-13T00:40:49;21.50;53.70
9837;DHT22;4957;51.412;6.724;2023-07-13T00:43:17;21.50;54.00
9837;DHT22;4957;51.412;6.724;2023-07-13T00:48:11;21.40;53.90
9837;DHT22;4957;51.412;6.724;2023-07-13T00:50:38;21.40;54.10
9837;DHT22;4957;51.412;6.724;2023-07-13T00:53:04;21.40;54.40
9837;DHT22;4957;51.412;6.724;2023-07-13T00:55:30;21.30;54.30
9837;DHT22;4957;51.412;6.724;2023-07-13T00:58:14;21.30;54.30
9837;DHT22;4957;51.412;6.724;2023-07-13T01:00:41;21.30;54.80
9837;DHT22;4957;51.412;6.724;2023-07-13T01:03:07;21.20;54.70
9837;DHT22;4957;51.412;6.724;2023-07-13T01:05:34;21.20;54.70
9837;DHT22;4957;51.412;6.724;2023-07-13T01:08:01;21.20;54.70
9837;DHT22;4957;51.412;6.724;2023-07-13T01:10:27;21.10;54.90
9837;DHT22;4957;51.412;6.724;2023-07-13T01:12:54;21.10;55.20
9837;DHT22;4957;51.412;6.724;2023-07-13T01:15:53;21.00;55.40
9837;DHT22;4957;51.412;6.724;2023-07-13T01:18:25;20.90;54.70
9837;DHT22;4957;51.412;6.724;2023-07-13T01:21:00;20.90;55.70
9837;DHT22;4957;51.412;6.724;2023-07-13T01:23:27;20.90;56.20
9837;DHT22;4957;51.412;6.724;2023-07-13T01:25:54;20.80;55.80
9837;DHT22;4957;51.412;6.724;2023-07-13T01:28:21;20.80;55.90
9837;DHT22;4957;51.412;6.724;2023-07-13T01:30:48;20.70;56.20
9837;DHT22;4957;51.412;6.724;2023-07-13T01:33:16;20.70;56.30
9837;DHT22;4957;51.412;6.724;2023-07-13T01:35:43;20.70;56.70
9837;DHT22;4957;51.412;6.724;2023-07-13T01:38:09;20.60;56.70
9837;DHT22;4957;51.412;6.724;2023-07-13T01:40:36;20.60;56.90
9837;DHT22;4957;51.412;6.724;2023-07-13T01:43:03;20.60;57.10
9837;DHT22;4957;51.412;6.724;2023-07-13T01:45:28;20.50;57.10
9837;DHT22;4957;51.412;6.724;2023-07-13T01:47:54;20.50;57.30
9837;DHT22;4957;51.412;6.724;2023-07-13T01:50:20;20.50;57.40
9837;DHT22;4957;51.412;6.724;2023-07-13T01:52:46;20.40;57.40
9837;DHT22;4957;51.412;6.724;2023-07-13T01:55:11;20.40;57.60
9837;DHT22;4957;51.412;6.724;2023-07-13T01:57:37;20.40;57.50
9837;DHT22;4957;51.412;6.724;2023-07-13T02:00:05;20.40;57.90
9837;DHT22;4957;51.412;6.724;2023-07-13T02:02:31;20.30;58.00
9837;DHT22;4957;51.412;6.724;2023-07-13T02:04:57;20.30;58.10
9837;DHT22;4957;51.412;6.724;2023-07-13T02:07:22;20.30;58.30
9837;DHT22;4957;51.412;6.724;2023-07-13T02:09:48;20.30;58.30
9837;DHT22;4957;51.412;6.724;2023-07-13T02:12:13;20.20;58.30
9837;DHT22;4957;51.412;6.724;2023-07-13T02:14:39;20.20;58.60
9837;DHT22;4957;51.412;6.724;2023-07-13T02:17:05;20.20;58.70
9837;DHT22;4957;51.412;6.724;2023-07-13T02:19:31;20.10;58.60
9837;DHT22;4957;51.412;6.724;2023-07-13T02:21:56;20.10;58.60
9837;DHT22;4957;51.412;6.724;2023-07-13T02:24:22;20.00;58.90
9837;DHT22;4957;51.412;6.724;2023-07-13T02:26:48;20.00;59.00
9837;DHT22;4957;51.412;6.724;2023-07-13T02:29:14;20.00;58.80
9837;DHT22;4957;51.412;6.724;2023-07-13T02:31:40;19.90;59.00
9837;DHT22;4957;51.412;6.724;2023-07-13T02:34:05;19.90;59.20
9837;DHT22;4957;51.412;6.724;2023-07-13T02:36:32;19.90;59.40
9837;DHT22;4957;51.412;6.724;2023-07-13T02:39:01;19.80;59.50
9837;DHT22;4957;51.412;6.724;2023-07-13T02:41:28;19.80;59.90
9837;DHT22;4957;51.412;6.724;2023-07-13T02:43:54;19.80;59.50
9837;DHT22;4957;51.412;6.724;2023-07-13T02:46:22;19.80;60.10
9837;DHT22;4957;51.412;6.724;2023-07-13T02:48:49;19.70;59.80
9837;DHT22;4957;51.412;6.724;2023-07-13T02:51:15;19.70;60.20
9837;DHT22;4957;51.412;6.724;2023-07-13T02:53:40;19.60;60.30
9837;DHT22;4957;51.412;6.724;2023-07-13T02:56:06;19.70;60.30
9837;DHT22;4957;51.412;6.724;2023-07-13T02:58:32;19.60;60.20
9837;DHT22;4957;51.412;6.724;2023-07-13T03:01:06;19.60;60.50
9837;DHT22;4957;51.412;6.724;2023-07-13T03:03:32;19.60;61.10
9837;DHT22;4957;51.412;6.724;2023-07-13T03:06:00;19.60;60.80
9837;DHT22;4957;51.412;6.724;2023-07-13T03:08:27;19.50;61.00
9837;DHT22;4957;51.412;6.724;2023-07-13T03:11:07;19.50;60.90
9837;DHT22;4957;51.412;6.724;2023-07-13T03:13:33;19.40;61.80
9837;DHT22;4957;51.412;6.724;2023-07-13T03:15:59;19.40;61.30
9837;DHT22;4957;51.412;6.724;2023-07-13T03:18:27;19.40;62.10
9837;DHT22;4957;51.412;6.724;2023-07-13T03:20:53;19.30;62.00
9837;DHT22;4957;51.412;6.724;2023-07-13T03:23:20;19.30;62.10
9837;DHT22;4957;51.412;6.724;2023-07-13T03:25:46;19.30;62.10
9837;DHT22;4957;51.412;6.724;2023-07-13T03:28:12;19.20;62.40
9837;DHT22;4957;51.412;6.724;2023-07-13T03:30:38;19.20;62.70
9837;DHT22;4957;51.412;6.724;2023-07-13T03:33:04;19.20;62.90
9837;DHT22;4957;51.412;6.724;2023-07-13T03:35:30;19.10;62.70
9837;DHT22;4957;51.412;6.724;2023-07-13T03:37:58;19.10;63.40
9837;DHT22;4957;51.412;6.724;2023-07-13T03:40:25;19.10;63.90
9837;DHT22;4957;51.412;6.724;2023-07-13T03:42:52;19.00;63.30
9837;DHT22;4957;51.412;6.724;2023-07-13T03:45:18;19.00;63.90
9837;DHT22;4957;51.412;6.724;2023-07-13T03:47:43;19.00;63.70
9837;DHT22;4957;51.412;6.724;2023-07-13T03:50:09;19.00;64.20
9837;DHT22;4957;51.412;6.724;2023-07-13T03:52:35;18.90;64.00
9837;DHT22;4957;51.412;6.724;2023-07-13T03:55:01;18.90;64.40
9837;DHT22;4957;51.412;6.724;2023-07-13T03:57:26;18.80;64.70
9837;DHT22;4957;51.412;6.724;2023-07-13T03:59:52;18.80;65.20
9837;DHT22;4957;51.412;6.724;2023-07-13T04:02:18;18.80;65.50
9837;DHT22;4957;51.412;6.724;2023-07-13T04:04:43;18.80;65.80
9837;DHT22;4957;51.412;6.724;2023-07-13T04:07:09;18.80;66.20
9837;DHT22;4957;51.412;6.724;2023-07-13T04:09:36;18.80;66.60
9837;DHT22;4957;51.412;6.724;2023-07-13T04:12:01;18.80;66.80
9837;DHT22;4957;51.412;6.724;2023-07-13T04:14:27;18.80;67.00
9837;DHT22;4957;51.412;6.724;2023-07-13T04:16:53;18.80;67.20
9837;DHT22;4957;51.412;6.724;2023-07-13T04:19:20;18.80;67.50
9837;DHT22;4957;51.412;6.724;2023-07-13T04:21:46;18.80;67.90
9837;DHT22;4957;51.412;6.724;2023-07-13T04:24:12;18.80;68.10
9837;DHT22;4957;51.412;6.724;2023-07-13T04:26:38;18.80;68.30
9837;DHT22;4957;51.412;6.724;2023-07-13T04:29:06;18.80;68.70
9837;DHT22;4957;51.412;6.724;2023-07-13T04:31:32;18.90;68.90
9837;DHT22;4957;51.412;6.724;2023-07-13T04:33:58;18.90;69.30
9837;DHT22;4957;51.412;6.724;2023-07-13T04:36:24;18.90;69.40
9837;DHT22;4957;51.412;6.724;2023-07-13T04:38:53;18.90;69.40
9837;DHT22;4957;51.412;6.724;2023-07-13T04:41:20;18.90;69.40
9837;DHT22;4957;51.412;6.724;2023-07-13T04:43:47;19.00;70.00
9837;DHT22;4957;51.412;6.724;2023-07-13T04:46:15;19.00;70.00
9837;DHT22;4957;51.412;6.724;2023-07-13T04:48:42;19.00;70.60
9837;DHT22;4957;51.412;6.724;2023-07-13T04:51:08;19.00;70.10
9837;DHT22;4957;51.412;6.724;2023-07-13T04:53:34;19.00;70.40
9837;DHT22;4957;51.412;6.724;2023-07-13T04:56:00;19.10;70.80
9837;DHT22;4957;51.412;6.724;2023-07-13T04:58:27;19.00;70.90
9837;DHT22;4957;51.412;6.724;2023-07-13T05:00:53;19.10;71.10
9837;DHT22;4957;51.412;6.724;2023-07-13T05:03:19;19.10;71.60
9837;DHT22;4957;51.412;6.724;2023-07-13T05:05:58;19.10;72.50
9837;DHT22;4957;51.412;6.724;2023-07-13T05:08:25;19.20;73.80
9837;DHT22;4957;51.412;6.724;2023-07-13T05:10:52;19.20;73.00
9837;DHT22;4957;51.412;6.724;2023-07-13T05:13:18;19.20;73.40
9837;DHT22;4957;51.412;6.724;2023-07-13T05:15:43;19.20;73.40
9837;DHT22;4957;51.412;6.724;2023-07-13T05:18:09;19.30;73.60
9837;DHT22;4957;51.412;6.724;2023-07-13T05:20:34;19.30;73.90
9837;DHT22;4957;51.412;6.724;2023-07-13T05:23:00;19.30;74.20
9837;DHT22;4957;51.412;6.724;2023-07-13T05:25:26;19.50;74.90
9837;DHT22;4957;51.412;6.724;2023-07-13T05:27:52;19.50;74.90
9837;DHT22;4957;51.412;6.724;2023-07-13T05:30:18;19.50;75.30
9837;DHT22;4957;51.412;6.724;2023-07-13T05:32:43;19.60;75.30
9837;DHT22;4957;51.412;6.724;2023-07-13T05:35:09;19.60;75.40
9837;DHT22;4957;51.412;6.724;2023-07-13T05:37:37;19.70;75.70
9837;DHT22;4957;51.412;6.724;2023-07-13T05:40:03;19.70;75.90
9837;DHT22;4957;51.412;6.724;2023-07-13T05:42:29;19.80;76.00
9837;DHT22;4957;51.412;6.724;2023-07-13T05:44:56;19.90;75.80
9837;DHT22;4957;51.412;6.724;2023-07-13T05:47:22;20.00;75.80
9837;DHT22;4957;51.412;6.724;2023-07-13T05:49:48;20.10;76.20
9837;DHT22;4957;51.412;6.724;2023-07-13T05:52:14;20.20;76.20
9837;DHT22;4957;51.412;6.724;2023-07-13T05:54:39;20.20;76.10
9837;DHT22;4957;51.412;6.724;2023-07-13T05:57:05;20.30;76.20
9837;DHT22;4957;51.412;6.724;2023-07-13T05:59:31;20.40;76.40
9837;DHT22;4957;51.412;6.724;2023-07-13T06:01:56;20.40;76.40
9837;DHT22;4957;51.412;6.724;2023-07-13T06:04:22;20.60;76.50
9837;DHT22;4957;51.412;6.724;2023-07-13T06:06:48;20.60;76.50
9837;DHT22;4957;51.412;6.724;2023-07-13T06:09:13;20.80;76.60
9837;DHT22;4957;51.412;6.724;2023-07-13T06:11:39;20.90;76.40
9837;DHT22;4957;51.412;6.724;2023-07-13T06:14:04;21.00;75.70
9837;DHT22;4957;51.412;6.724;2023-07-13T06:16:30;21.00;75.80
9837;DHT22;4957;51.412;6.724;2023-07-13T06:18:56;21.10;75.50
9837;DHT22;4957;51.412;6.724;2023-07-13T06:21:23;21.20;75.30
9837;DHT22;4957;51.412;6.724;2023-07-13T06:23:50;21.30;74.30
9837;DHT22;4957;51.412;6.724;2023-07-13T06:26:17;21.40;74.90
9837;DHT22;4957;51.412;6.724;2023-07-13T06:28:43;21.40;74.50
9837;DHT22;4957;51.412;6.724;2023-07-13T06:31:11;21.50;74.60
9837;DHT22;4957;51.412;6.724;2023-07-13T06:33:37;21.60;74.40
9837;DHT22;4957;51.412;6.724;2023-07-13T06:36:04;21.60;74.10
9837;DHT22;4957;51.412;6.724;2023-07-13T06:38:30;21.70;74.20
9837;DHT22;4957;51.412;6.724;2023-07-13T06:40:56;21.80;74.10
9837;DHT22;4957;51.412;6.724;2023-07-13T06:43:22;21.90;74.50
9837;DHT22;4957;51.412;6.724;2023-07-13T06:45:51;22.00;74.30
9837;DHT22;4957;51.412;6.724;2023-07-13T06:48:19;22.10;74.30
9837;DHT22;4957;51.412;6.724;2023-07-13T06:50:46;22.20;73.90
9837;DHT22;4957;51.412;6.724;2023-07-13T06:53:12;22.20;73.50
9837;DHT22;4957;51.412;6.724;2023-07-13T06:55:38;22.30;73.00
9837;DHT22;4957;51.412;6.724;2023-07-13T06:58:04;22.40;73.10
9837;DHT22;4957;51.412;6.724;2023-07-13T07:00:30;22.50;72.80
9837;DHT22;4957;51.412;6.724;2023-07-13T07:02:55;22.50;72.40
9837;DHT22;4957;51.412;6.724;2023-07-13T07:05:21;22.60;71.60
9837;DHT22;4957;51.412;6.724;2023-07-13T07:07:51;22.60;71.30
9837;DHT22;4957;51.412;6.724;2023-07-13T07:10:18;22.70;71.70
9837;DHT22;4957;51.412;6.724;2023-07-13T07:12:44;22.70;71.80
9837;DHT22;4957;51.412;6.724;2023-07-13T07:15:10;22.80;71.50
9837;DHT22;4957;51.412;6.724;2023-07-13T07:17:36;22.80;71.40
9837;DHT22;4957;51.412;6.724;2023-07-13T07:20:02;22.80;71.40
9837;DHT22;4957;51.412;6.724;2023-07-13T07:22:29;22.90;71.10
9837;DHT22;4957;51.412;6.724;2023-07-13T07:24:56;22.90;71.30
9837;DHT22;4957;51.412;6.724;2023-07-13T07:27:21;22.90;71.30
9837;DHT22;4957;51.412;6.724;2023-07-13T07:29:47;22.90;71.30
9837;DHT22;4957;51.412;6.724;2023-07-13T07:32:12;23.00;71.30
9837;DHT22;4957;51.412;6.724;2023-07-13T07:34:38;23.10;71.20
9837;DHT22;4957;51.412;6.724;2023-07-13T07:37:04;23.10;71.10
9837;DHT22;4957;51.412;6.724;2023-07-13T07:39:30;23.10;70.80
9837;DHT22;4957;51.412;6.724;2023-07-13T07:41:56;23.20;71.50
9837;DHT22;4957;51.412;6.724;2023-07-13T07:44:22;23.20;70.60
9837;DHT22;4957;51.412;6.724;2023-07-13T07:46:48;23.30;70.60
9837;DHT22;4957;51.412;6.724;2023-07-13T07:49:13;23.40;70.30
9837;DHT22;4957;51.412;6.724;2023-07-13T07:51:39;23.50;70.20
9837;DHT22;4957;51.412;6.724;2023-07-13T07:54:05;23.50;69.90
9837;DHT22;4957;51.412;6.724;2023-07-13T07:56:31;23.60;69.70
9837;DHT22;4957;51.412;6.724;2023-07-13T07:58:57;23.70;69.50
9837;DHT22;4957;51.412;6.724;2023-07-13T08:01:23;23.80;69.30
9837;DHT22;4957;51.412;6.724;2023-07-13T08:03:49;23.90;69.10
9837;DHT22;4957;51.412;6.724;2023-07-13T08:06:15;23.90;68.50
9837;DHT22;4957;51.412;6.724;2023-07-13T08:08:40;24.00;68.70
9837;DHT22;4957;51.412;6.724;2023-07-13T08:11:08;24.10;68.30
9837;DHT22;4957;51.412;6.724;2023-07-13T08:13:34;24.10;68.20
9837;DHT22;4957;51.412;6.724;2023-07-13T08:16:00;24.20;68.10
9837;DHT22;4957;51.412;6.724;2023-07-13T08:18:26;24.30;67.90
9837;DHT22;4957;51.412;6.724;2023-07-13T08:20:53;24.30;67.70
9837;DHT22;4957;51.412;6.724;2023-07-13T08:23:22;24.40;67.90
9837;DHT22;4957;51.412;6.724;2023-07-13T08:25:54;24.50;67.90
9837;DHT22;4957;51.412;6.724;2023-07-13T08:28:21;24.60;68.00
9837;DHT22;4957;51.412;6.724;2023-07-13T08:30:47;24.70;67.70
9837;DHT22;4957;51.412;6.724;2023-07-13T08:33:15;24.80;67.40
9837;DHT22;4957;51.412;6.724;2023-07-13T08:35:41;24.90;67.60
9837;DHT22;4957;51.412;6.724;2023-07-13T08:38:06;25.00;67.50
9837;DHT22;4957;51.412;6.724;2023-07-13T08:40:34;25.10;66.90
9837;DHT22;4957;51.412;6.724;2023-07-13T08:43:00;25.20;66.50
9837;DHT22;4957;51.412;6.724;2023-07-13T08:45:43;25.40;66.10
9837;DHT22;4957;51.412;6.724;2023-07-13T08:48:13;25.50;65.50
9837;DHT22;4957;51.412;6.724;2023-07-13T08:50:58;25.60;65.10
9837;DHT22;4957;51.412;6.724;2023-07-13T08:53:34;25.70;64.90
9837;DHT22;4957;51.412;6.724;2023-07-13T08:56:00;25.70;64.70
9837;DHT22;4957;51.412;6.724;2023-07-13T08:58:27;25.80;64.50
9837;DHT22;4957;51.412;6.724;2023-07-13T09:01:06;25.90;64.20
9837;DHT22;4957;51.412;6.724;2023-07-13T09:03:46;26.00;63.70
9837;DHT22;4957;51.412;6.724;2023-07-13T09:06:17;26.10;63.50
9837;DHT22;4957;51.412;6.724;2023-07-13T09:08:58;26.10;63.10
9837;DHT22;4957;51.412;6.724;2023-07-13T09:16:55;26.40;62.40
9837;DHT22;4957;51.412;6.724;2023-07-13T09:19:26;26.40;62.20
9837;DHT22;4957;51.412;6.724;2023-07-13T09:21:54;26.50;62.10
9837;DHT22;4957;51.412;6.724;2023-07-13T09:24:34;26.60;62.20
9837;DHT22;4957;51.412;6.724;2023-07-13T09:27:08;26.60;63.00
9837;DHT22;4957;51.412;6.724;2023-07-13T09:29:37;26.70;61.90
9837;DHT22;4957;51.412;6.724;2023-07-13T09:32:12;26.70;62.00
9837;DHT22;4957;51.412;6.724;2023-07-13T09:34:40;26.80;62.10
9837;DHT22;4957;51.412;6.724;2023-07-13T09:37:05;26.90;61.80
9837;DHT22;4957;51.412;6.724;2023-07-13T09:39:39;27.10;61.30
9837;DHT22;4957;51.412;6.724;2023-07-13T09:42:18;27.20;61.10
9837;DHT22;4957;51.412;6.724;2023-07-13T09:44:54;27.40;60.60
9837;DHT22;4957;51.412;6.724;2023-07-13T09:47:28;27.60;59.80
9837;DHT22;4957;51.412;6.724;2023-07-13T09:50:03;27.70;59.30
9837;DHT22;4957;51.412;6.724;2023-07-13T09:52:47;27.80;58.80
9837;DHT22;4957;51.412;6.724;2023-07-13T09:55:36;27.90;58.90
9837;DHT22;4957;51.412;6.724;2023-07-13T09:58:14;28.00;58.10
9837;DHT22;4957;51.412;6.724;2023-07-13T10:00:41;28.00;57.90
9837;DHT22;4957;51.412;6.724;2023-07-13T10:03:18;28.10;57.50
9837;DHT22;4957;51.412;6.724;2023-07-13T10:05:45;28.30;57.50
9837;DHT22;4957;51.412;6.724;2023-07-13T10:08:29;28.40;57.20
9837;DHT22;4957;51.412;6.724;2023-07-13T10:11:10;28.60;56.80
9837;DHT22;4957;51.412;6.724;2023-07-13T10:13:41;28.80;56.30
9837;DHT22;4957;51.412;6.724;2023-07-13T10:16:09;29.00;55.70
9837;DHT22;4957;51.412;6.724;2023-07-13T10:18:50;29.30;55.00
9837;DHT22;4957;51.412;6.724;2023-07-13T10:21:19;29.60;53.90
9837;DHT22;4957;51.412;6.724;2023-07-13T10:23:58;29.80;53.40
9837;DHT22;4957;51.412;6.724;2023-07-13T10:26:35;30.00;52.60
9837;DHT22;4957;51.412;6.724;2023-07-13T10:29:05;30.20;51.90
9837;DHT22;4957;51.412;6.724;2023-07-13T10:31:32;30.40;51.40
9837;DHT22;4957;51.412;6.724;2023-07-13T10:34:00;30.60;51.00
9837;DHT22;4957;51.412;6.724;2023-07-13T10:36:42;30.80;50.10
9837;DHT22;4957;51.412;6.724;2023-07-13T10:39:17;31.00;49.00
9837;DHT22;4957;51.412;6.724;2023-07-13T10:41:49;31.20;48.30
9837;DHT22;4957;51.412;6.724;2023-07-13T10:44:22;31.40;47.70
9837;DHT22;4957;51.412;6.724;2023-07-13T10:46:53;31.60;47.20
9837;DHT22;4957;51.412;6.724;2023-07-13T10:49:20;31.70;46.90
9837;DHT22;4957;51.412;6.724;2023-07-13T10:51:46;31.80;46.10
9837;DHT22;4957;51.412;6.724;2023-07-13T10:54:19;31.90;45.60
9837;DHT22;4957;51.412;6.724;2023-07-13T10:59:34;32.00;44.70
9837;DHT22;4957;51.412;6.724;2023-07-13T11:02:12;32.00;44.80
9837;DHT22;4957;51.412;6.724;2023-07-13T11:04:47;32.10;44.20
9837;DHT22;4957;51.412;6.724;2023-07-13T11:07:23;32.10;44.30
9837;DHT22;4957;51.412;6.724;2023-07-13T11:09:51;32.20;44.20
9837;DHT22;4957;51.412;6.724;2023-07-13T11:20:19;32.80;42.20
9837;DHT22;4957;51.412;6.724;2023-07-13T11:22:51;32.90;41.90
9837;DHT22;4957;51.412;6.724;2023-07-13T11:27:50;33.30;41.30
9837;DHT22;4957;51.412;6.724;2023-07-13T11:35:34;34.00;39.40
9837;DHT22;4957;51.412;6.724;2023-07-13T11:38:02;34.10;39.20
9837;DHT22;4957;51.412;6.724;2023-07-13T11:40:29;34.30;38.80
9837;DHT22;4957;51.412;6.724;2023-07-13T11:43:02;34.50;39.00
9837;DHT22;4957;51.412;6.724;2023-07-13T11:45:32;34.70;37.90
9837;DHT22;4957;51.412;6.724;2023-07-13T11:47:57;34.80;37.40
9837;DHT22;4957;51.412;6.724;2023-07-13T11:50:25;35.00;37.10
9837;DHT22;4957;51.412;6.724;2023-07-13T11:52:54;35.00;37.00
9837;DHT22;4957;51.412;6.724;2023-07-13T11:55:22;35.20;36.20
9837;DHT22;4957;51.412;6.724;2023-07-13T11:57:53;35.30;36.00
9837;DHT22;4957;51.412;6.724;2023-07-13T12:00:24;35.50;35.60
9837;DHT22;4957;51.412;6.724;2023-07-13T12:02:54;35.70;35.30
9837;DHT22;4957;51.412;6.724;2023-07-13T12:05:21;35.80;35.30
9837;DHT22;4957;51.412;6.724;2023-07-13T12:07:48;35.90;34.40
9837;DHT22;4957;51.412;6.724;2023-07-13T12:10:25;36.10;34.00
9837;DHT22;4957;51.412;6.724;2023-07-13T12:13:05;36.20;33.50
9837;DHT22;4957;51.412;6.724;2023-07-13T12:15:42;36.30;33.40
9837;DHT22;4957;51.412;6.724;2023-07-13T12:18:21;36.30;33.00
9837;DHT22;4957;51.412;6.724;2023-07-13T12:20:48;36.40;32.50
9837;DHT22;4957;51.412;6.724;2023-07-13T12:23:31;36.40;32.70
9837;DHT22;4957;51.412;6.724;2023-07-13T12:25:59;36.30;32.20
9837;DHT22;4957;51.412;6.724;2023-07-13T12:28:43;36.30;32.50
9837;DHT22;4957;51.412;6.724;2023-07-13T12:33:57;36.30;31.70
9837;DHT22;4957;51.412;6.724;2023-07-13T12:36:23;36.30;32.00
9837;DHT22;4957;51.412;6.724;2023-07-13T12:38:49;36.20;32.00
9837;DHT22;4957;51.412;6.724;2023-07-13T12:41:16;36.10;32.00
9837;DHT22;4957;51.412;6.724;2023-07-13T12:43:45;36.00;32.00
9837;DHT22;4957;51.412;6.724;2023-07-13T12:46:20;35.90;31.80
9837;DHT22;4957;51.412;6.724;2023-07-13T12:48:54;35.70;31.70
9837;DHT22;4957;51.412;6.724;2023-07-13T12:51:25;35.60;31.80
9837;DHT22;4957;51.412;6.724;2023-07-13T12:54:06;35.50;32.00
9837;DHT22;4957;51.412;6.724;2023-07-13T12:56:38;35.30;32.50
9837;DHT22;4957;51.412;6.724;2023-07-13T12:59:04;35.10;33.10
9837;DHT22;4957;51.412;6.724;2023-07-13T13:01:34;34.90;33.40
9837;DHT22;4957;51.412;6.724;2023-07-13T13:04:03;34.70;33.50
9837;DHT22;4957;51.412;6.724;2023-07-13T13:06:32;34.60;33.90
9837;DHT22;4957;51.412;6.724;2023-07-13T13:08:59;34.40;34.30
9837;DHT22;4957;51.412;6.724;2023-07-13T13:11:26;34.30;34.40
9837;DHT22;4957;51.412;6.724;2023-07-13T13:13:53;34.10;34.90
9837;DHT22;4957;51.412;6.724;2023-07-13T13:18:55;33.90;35.20
9837;DHT22;4957;51.412;6.724;2023-07-13T13:21:23;33.90;35.40
9837;DHT22;4957;51.412;6.724;2023-07-13T13:23:49;33.90;35.70
9837;DHT22;4957;51.412;6.724;2023-07-13T13:26:17;34.00;35.20
9837;DHT22;4957;51.412;6.724;2023-07-13T13:28:44;34.00;35.50
9837;DHT22;4957;51.412;6.724;2023-07-13T13:31:11;34.10;35.00
9837;DHT22;4957;51.412;6.724;2023-07-13T13:33:39;34.20;35.00
9837;DHT22;4957;51.412;6.724;2023-07-13T13:36:21;34.30;34.40
9837;DHT22;4957;51.412;6.724;2023-07-13T13:38:49;34.40;34.00
9837;DHT22;4957;51.412;6.724;2023-07-13T13:41:15;34.50;33.90
9837;DHT22;4957;51.412;6.724;2023-07-13T13:43:42;34.50;33.90
9837;DHT22;4957;51.412;6.724;2023-07-13T13:46:23;34.50;33.80
9837;DHT22;4957;51.412;6.724;2023-07-13T13:48:50;34.50;33.80
9837;DHT22;4957;51.412;6.724;2023-07-13T13:51:21;34.50;34.00
9837;DHT22;4957;51.412;6.724;2023-07-13T13:53:49;34.40;33.90
9837;DHT22;4957;51.412;6.724;2023-07-13T13:56:15;34.50;33.90
9837;DHT22;4957;51.412;6.724;2023-07-13T13:58:41;34.50;33.90
9837;DHT22;4957;51.412;6.724;2023-07-13T14:01:17;34.50;34.00
9837;DHT22;4957;51.412;6.724;2023-07-13T14:03:43;34.50;33.50
9837;DHT22;4957;51.412;6.724;2023-07-13T14:06:16;34.60;33.90
9837;DHT22;4957;51.412;6.724;2023-07-13T14:08:42;34.60;33.60
9837;DHT22;4957;51.412;6.724;2023-07-13T14:11:13;34.50;33.70
9837;DHT22;4957;51.412;6.724;2023-07-13T14:13:45;34.50;33.80
9837;DHT22;4957;51.412;6.724;2023-07-13T14:16:17;34.40;34.20
9837;DHT22;4957;51.412;6.724;2023-07-13T14:18:47;34.40;34.90
9837;DHT22;4957;51.412;6.724;2023-07-13T14:21:17;34.30;35.30
9837;DHT22;4957;51.412;6.724;2023-07-13T14:23:45;34.20;35.90
9837;DHT22;4957;51.412;6.724;2023-07-13T14:26:19;34.20;36.40
9837;DHT22;4957;51.412;6.724;2023-07-13T14:28:48;34.10;36.60
9837;DHT22;4957;51.412;6.724;2023-07-13T14:31:16;34.00;36.80
9837;DHT22;4957;51.412;6.724;2023-07-13T14:33:42;34.00;37.00
9837;DHT22;4957;51.412;6.724;2023-07-13T14:36:31;33.90;37.30
9837;DHT22;4957;51.412;6.724;2023-07-13T14:38:59;33.80;37.70
9837;DHT22;4957;51.412;6.724;2023-07-13T14:41:25;33.70;37.70
9837;DHT22;4957;51.412;6.724;2023-07-13T14:43:51;33.70;37.70
9837;DHT22;4957;51.412;6.724;2023-07-13T14:46:32;33.60;37.60
9837;DHT22;4957;51.412;6.724;2023-07-13T14:49:06;33.60;37.60
9837;DHT22;4957;51.412;6.724;2023-07-13T14:51:33;33.50;37.50
9837;DHT22;4957;51.412;6.724;2023-07-13T14:54:04;33.40;37.50
9837;DHT22;4957;51.412;6.724;2023-07-13T14:56:30;33.30;37.40
9837;DHT22;4957;51.412;6.724;2023-07-13T14:58:56;33.20;37.40
9837;DHT22;4957;51.412;6.724;2023-07-13T15:01:22;33.20;38.20
9837;DHT22;4957;51.412;6.724;2023-07-13T15:03:50;33.10;39.10
9837;DHT22;4957;51.412;6.724;2023-07-13T15:06:17;32.90;39.40
9837;DHT22;4957;51.412;6.724;2023-07-13T15:08:46;32.90;39.30
9837;DHT22;4957;51.412;6.724;2023-07-13T15:11:12;32.70;39.10
9837;DHT22;4957;51.412;6.724;2023-07-13T15:13:39;32.50;39.20
9837;DHT22;4957;51.412;6.724;2023-07-13T15:16:17;32.40;39.20
9837;DHT22;4957;51.412;6.724;2023-07-13T15:18:44;32.10;39.10
9837;DHT22;4957;51.412;6.724;2023-07-13T15:21:20;31.90;39.30
9837;DHT22;4957;51.412;6.724;2023-07-13T15:23:46;31.70;39.60
9837;DHT22;4957;51.412;6.724;2023-07-13T15:26:16;31.60;39.90
9837;DHT22;4957;51.412;6.724;2023-07-13T15:28:43;31.40;39.70
9837;DHT22;4957;51.412;6.724;2023-07-13T15:31:25;31.30;39.70
9837;DHT22;4957;51.412;6.724;2023-07-13T15:33:52;31.20;40.30
9837;DHT22;4957;51.412;6.724;2023-07-13T15:36:19;31.00;40.50
9837;DHT22;4957;51.412;6.724;2023-07-13T15:38:46;30.90;40.80
9837;DHT22;4957;51.412;6.724;2023-07-13T15:41:26;30.80;40.70
9837;DHT22;4957;51.412;6.724;2023-07-13T15:43:54;30.60;40.70
9837;DHT22;4957;51.412;6.724;2023-07-13T15:46:22;30.50;40.60
9837;DHT22;4957;51.412;6.724;2023-07-13T15:48:49;30.40;40.60
9837;DHT22;4957;51.412;6.724;2023-07-13T15:51:28;30.40;40.80
9837;DHT22;4957;51.412;6.724;2023-07-13T15:53:59;30.20;40.60
9837;DHT22;4957;51.412;6.724;2023-07-13T15:56:29;30.20;40.80
9837;DHT22;4957;51.412;6.724;2023-07-13T15:58:58;30.10;40.70
9837;DHT22;4957;51.412;6.724;2023-07-13T16:01:24;30.00;41.00
9837;DHT22;4957;51.412;6.724;2023-07-13T16:03:50;29.90;41.10
9837;DHT22;4957;51.412;6.724;2023-07-13T16:06:31;29.80;41.30
9837;DHT22;4957;51.412;6.724;2023-07-13T16:08:58;29.80;41.40
9837;DHT22;4957;51.412;6.724;2023-07-13T16:11:26;29.70;41.50
9837;DHT22;4957;51.412;6.724;2023-07-13T16:13:53;29.70;41.60
9837;DHT22;4957;51.412;6.724;2023-07-13T16:16:22;29.60;41.90
9837;DHT22;4957;51.412;6.724;2023-07-13T16:18:55;29.60;42.20
9837;DHT22;4957;51.412;6.724;2023-07-13T16:21:26;29.50;42.10
9837;DHT22;4957;51.412;6.724;2023-07-13T16:23:54;29.50;42.30
9837;DHT22;4957;51.412;6.724;2023-07-13T16:26:35;29.40;42.30
9837;DHT22;4957;51.412;6.724;2023-07-13T16:31:57;29.30;42.50
9837;DHT22;4957;51.412;6.724;2023-07-13T16:34:23;29.20;42.50
9837;DHT22;4957;51.412;6.724;2023-07-13T16:36:51;29.20;42.50
9837;DHT22;4957;51.412;6.724;2023-07-13T16:39:17;29.10;42.40
9837;DHT22;4957;51.412;6.724;2023-07-13T16:41:42;29.10;42.60
9837;DHT22;4957;51.412;6.724;2023-07-13T16:44:16;29.00;43.00
9837;DHT22;4957;51.412;6.724;2023-07-13T16:46:44;28.90;43.50